Terminal Aerodrome Forecast
Issued by NWS

Home | Current Version | Previous Version | Text Only | Print | Product List | Glossary On
Versions: 1 2 3 4 5 6 7 8 9 10 11 12 13
000
FTUS45 KRIW 041720
TAFLND
TAF
KLND 041720Z 0418/0518 03008KT P6SM SCT110
     FM050300 28007KT 5SM FU SCT120
     FM050700 26008KT P6SM FEW120 SCT200=

USA.gov is the U.S. government's official web portal to all federal, state and local government web resources and services.